| time (UTC) | temp F | wind direction | speed knots | gust knots | rain 1hr in | rain 24hr in | rain mn in | humidity % | barometer mb |
| 20260504130648 | 58 | 158 | 0.0 | 0.0 | 0.00 | 0.01 | 0.00 | 62 | 1002.0 |
| 20260504130143 | 57 | 160 | 0.0 | 0.0 | 0.00 | 0.01 | 0.00 | 66 | 1002.1 |
| 20260504110529 | 46 | 219 | 0.0 | 0.0 | 0.00 | 0.01 | 0.00 | 82 | 1002.0 |
| 20260504100505 | 47 | 219 | 0.0 | 0.0 | 0.00 | 0.01 | 0.00 | 81 | 1002.3 |
| 20260504081759 | 47 | 218 | 0.0 | 0.0 | 0.00 | 0.01 | 0.00 | 80 | 1002.3 |
| 20260504080757 | 48 | 218 | 0.0 | 0.0 | 0.00 | 0.01 | 0.00 | 79 | 1002.4 |
| 20260504080241 | 49 | 218 | 0.0 | 0.0 | 0.00 | 0.01 | 0.00 | 78 | 1002.4 |
| 20260504070129 | 51 | 218 | 0.0 | 0.0 | 0.00 | 0.01 | 0.00 | 77 | 1003.3 |
| 20260504050428 | 54 | 241 | 0.0 | 1.7 | 0.00 | 0.01 | 0.00 | 72 | 1004.2 |
| 20260504045428 | 55 | 243 | 0.0 | 1.7 | 0.00 | 0.01 | 0.01 | 71 | 1004.1 |
| 20260504044928 | 55 | 248 | 0.0 | 2.6 | 0.00 | 0.01 | 0.01 | 72 | 1004.1 |
| 20260504044428 | 55 | 248 | 0.0 | 2.6 | 0.00 | 0.01 | 0.01 | 71 | 1004.1 |
| 20260504043928 | 55 | 269 | 0.0 | 1.7 | 0.00 | 0.01 | 0.01 | 72 | 1004.0 |
| 20260504043429 | 54 | 274 | 0.0 | 1.7 | 0.00 | 0.01 | 0.01 | 72 | 1004.0 |
| 20260504042926 | 54 | 300 | 0.0 | 0.9 | 0.00 | 0.01 | 0.01 | 72 | 1004.0 |
| 20260504042428 | 54 | 308 | 0.0 | 0.0 | 0.00 | 0.01 | 0.01 | 72 | 1004.1 |
| 20260504041928 | 54 | 312 | 0.0 | 0.0 | 0.00 | 0.01 | 0.01 | 72 | 1004.1 |
| 20260504041427 | 54 | 315 | 0.0 | 0.9 | 0.00 | 0.01 | 0.01 | 72 | 1004.0 |
| 20260504040428 | 55 | 325 | 0.0 | 0.0 | 0.00 | 0.01 | 0.01 | 72 | 1004.1 |
| 20260504035928 | 55 | 326 | 0.0 | 0.0 | 0.00 | 0.01 | 0.01 | 72 | 1004.1 |
| 20260504035428 | 55 | 326 | 0.0 | 0.0 | 0.00 | 0.01 | 0.01 | 71 | 1004.0 |
| 20260504034927 | 55 | 326 | 0.0 | 0.0 | 0.00 | 0.01 | 0.01 | 71 | 1004.0 |
| 20260504034421 | 55 | 326 | 0.0 | 0.0 | 0.00 | 0.01 | 0.01 | 71 | 1004.1 |
| 20260504033409 | 55 | 23 | 0.0 | 0.0 | 0.00 | 0.01 | 0.01 | 71 | 1004.1 |
| 20260504032904 | 55 | 24 | 0.0 | 0.0 | 0.00 | 0.01 | 0.01 | 70 | 1004.2 |
| 20260504032358 | 55 | 24 | 0.0 | 0.0 | 0.00 | 0.01 | 0.01 | 70 | 1004.2 |
| 20260504031346 | 56 | 24 | 0.0 | 0.0 | 0.00 | 0.01 | 0.01 | 69 | 1004.2 |
| 20260504030840 | 56 | 24 | 0.0 | 0.0 | 0.00 | 0.01 | 0.01 | 68 | 1004.2 |
| 20260504030334 | 56 | 24 | 0.0 | 0.0 | 0.00 | 0.01 | 0.01 | 67 | 1004.2 |
| 20260504025828 | 56 | 24 | 0.0 | 0.0 | 0.00 | 0.01 | 0.01 | 67 | 1004.3 |
| 20260504024815 | 57 | 24 | 0.0 | 0.0 | 0.00 | 0.01 | 0.01 | 66 | 1004.3 |
| 20260504024310 | 57 | 24 | 0.0 | 0.0 | 0.00 | 0.01 | 0.01 | 66 | 1004.3 |
| 20260504023804 | 57 | 24 | 0.0 | 0.0 | 0.00 | 0.01 | 0.01 | 65 | 1004.3 |
| 20260504023258 | 57 | 24 | 0.0 | 0.0 | 0.00 | 0.01 | 0.01 | 65 | 1004.3 |
| 20260504022752 | 57 | 24 | 0.0 | 0.0 | 0.00 | 0.01 | 0.01 | 65 | 1004.4 |
| 20260504022246 | 57 | 24 | 0.0 | 0.0 | 0.00 | 0.01 | 0.01 | 65 | 1004.4 |
| 20260504021233 | 57 | 24 | 0.0 | 0.0 | 0.00 | 0.01 | 0.01 | 64 | 1004.3 |
| 20260504020727 | 58 | 24 | 0.0 | 0.0 | 0.00 | 0.01 | 0.01 | 64 | 1004.2 |
| 20260504020221 | 58 | 24 | 0.0 | 0.0 | 0.00 | 0.01 | 0.01 | 63 | 1004.1 |
| 20260504015210 | 58 | 24 | 0.0 | 0.0 | 0.00 | 0.01 | 0.01 | 62 | 1004.1 |
| 20260504014703 | 59 | 24 | 0.0 | 0.0 | 0.00 | 0.01 | 0.01 | 62 | 1004.2 |
| 20260504014158 | 59 | 24 | 0.0 | 0.0 | 0.00 | 0.01 | 0.01 | 61 | 1004.1 |
| 20260504013651 | 60 | 24 | 0.0 | 0.0 | 0.00 | 0.01 | 0.01 | 60 | 1004.0 |
| 20260504013145 | 60 | 24 | 0.0 | 0.0 | 0.00 | 0.01 | 0.01 | 59 | 1004.0 |
| 20260504012640 | 60 | 24 | 0.0 | 0.0 | 0.00 | 0.01 | 0.01 | 58 | 1004.0 |
| 20260504012134 | 61 | 24 | 0.0 | 0.0 | 0.00 | 0.01 | 0.01 | 58 | 1004.0 |
| 20260504011627 | 61 | 24 | 0.0 | 0.0 | 0.00 | 0.01 | 0.01 | 57 | 1003.9 |
| 20260504011121 | 62 | 24 | 0.0 | 0.0 | 0.00 | 0.01 | 0.01 | 55 | 1003.8 |
| 20260504010616 | 62 | 24 | 0.0 | 0.0 | 0.00 | 0.01 | 0.01 | 55 | 1003.7 |
| 20260504010110 | 62 | 24 | 0.0 | 0.0 | 0.00 | 0.01 | 0.01 | 54 | 1003.7 |
| 20260504005603 | 63 | 25 | 0.0 | 0.0 | 0.00 | 0.01 | 0.01 | 53 | 1003.6 |
| 20260504005057 | 63 | 24 | 0.0 | 0.0 | 0.00 | 0.01 | 0.01 | 53 | 1003.6 |
| 20260504004551 | 64 | 25 | 0.0 | 0.0 | 0.00 | 0.01 | 0.01 | 52 | 1003.4 |
| 20260504004045 | 64 | 24 | 0.0 | 0.0 | 0.00 | 0.01 | 0.01 | 52 | 1003.6 |
| 20260504003539 | 65 | 25 | 0.0 | 0.0 | 0.00 | 0.01 | 0.01 | 51 | 1003.6 |
| 20260504003033 | 65 | 25 | 0.0 | 0.0 | 0.00 | 0.01 | 0.01 | 51 | 1003.6 |
| 20260504002528 | 65 | 25 | 0.0 | 0.0 | 0.00 | 0.01 | 0.01 | 50 | 1003.6 |
| 20260504001009 | 66 | 216 | 0.0 | 2.6 | 0.00 | 0.01 | 0.01 | 48 | 1003.6 |
| 20260504000504 | 67 | 217 | 0.0 | 2.6 | 0.00 | 0.01 | 0.01 | 49 | 1003.6 |
| 20260503235957 | 67 | 195 | 0.0 | 0.0 | 0.00 | 0.01 | 0.01 | 47 | 1003.6 |
| 20260503235451 | 67 | 193 | 0.0 | 0.0 | 0.00 | 0.01 | 0.01 | 47 | 1003.6 |
| 20260503234440 | 68 | 47 | 0.0 | 0.9 | 0.00 | 0.01 | 0.01 | 46 | 1003.7 |
| 20260503233934 | 68 | 249 | 0.9 | 4.3 | 0.00 | 0.01 | 0.01 | 45 | 1003.7 |
| 20260503233428 | 68 | 249 | 0.9 | 4.3 | 0.00 | 0.01 | 0.01 | 45 | 1003.7 |
| 20260503232921 | 68 | 247 | 0.0 | 3.5 | 0.00 | 0.01 | 0.01 | 44 | 1003.7 |
| 20260503232415 | 68 | 263 | 0.9 | 5.2 | 0.00 | 0.01 | 0.01 | 46 | 1003.7 |
| 20260503231910 | 68 | 295 | 0.9 | 7.0 | 0.00 | 0.01 | 0.01 | 45 | 1003.8 |
| 20260503231403 | 68 | 243 | 0.9 | 7.0 | 0.00 | 0.01 | 0.01 | 44 | 1003.9 |
| 20260503230858 | 68 | 208 | 0.9 | 4.3 | 0.00 | 0.01 | 0.01 | 46 | 1004.0 |
| 20260503230352 | 68 | 79 | 0.9 | 4.3 | 0.00 | 0.01 | 0.01 | 46 | 1003.9 |
| 20260503225846 | 68 | 242 | 0.9 | 9.6 | 0.00 | 0.01 | 0.01 | 46 | 1004.1 |
| 20260503225347 | 68 | 241 | 0.9 | 9.6 | 0.00 | 0.01 | 0.01 | 44 | 1004.1 |
| 20260503224846 | 68 | 294 | 0.9 | 3.5 | 0.00 | 0.01 | 0.01 | 45 | 1004.1 |
| 20260503224348 | 68 | 232 | 1.7 | 11.3 | 0.00 | 0.01 | 0.01 | 45 | 1004.2 |
| 20260503223847 | 68 | 226 | 1.7 | 11.3 | 0.00 | 0.01 | 0.01 | 43 | 1004.2 |
| 20260503223347 | 68 | 278 | 1.7 | 7.8 | 0.00 | 0.01 | 0.01 | 44 | 1004.2 |
| 20260503222847 | 68 | 274 | 2.6 | 7.8 | 0.00 | 0.01 | 0.01 | 44 | 1004.2 |
| 20260503222346 | 68 | 274 | 2.6 | 7.8 | 0.00 | 0.01 | 0.01 | 43 | 1004.2 |
| 20260503221847 | 68 | 285 | 2.6 | 7.8 | 0.00 | 0.01 | 0.01 | 42 | 1004.2 |
| 20260503221348 | 68 | 234 | 2.6 | 7.0 | 0.00 | 0.01 | 0.01 | 42 | 1004.0 |
| 20260503220847 | 68 | 273 | 1.7 | 7.0 | 0.00 | 0.01 | 0.01 | 43 | 1004.1 |
| 20260503220346 | 68 | 283 | 1.7 | 7.0 | 0.00 | 0.01 | 0.01 | 42 | 1004.0 |
| 20260503215847 | 68 | 305 | 2.6 | 7.8 | 0.00 | 0.01 | 0.01 | 44 | 1004.0 |
| 20260503215347 | 68 | 289 | 2.6 | 10.4 | 0.00 | 0.01 | 0.01 | 44 | 1004.0 |
| 20260503214846 | 68 | 235 | 2.6 | 11.3 | 0.00 | 0.01 | 0.01 | 44 | 1004.1 |
| 20260503214346 | 68 | 184 | 1.7 | 11.3 | 0.00 | 0.01 | 0.01 | 45 | 1004.0 |
| 20260503213347 | 68 | 121 | 0.9 | 5.2 | 0.00 | 0.01 | 0.01 | 44 | 1004.2 |
| 20260503212847 | 68 | 212 | 0.9 | 7.8 | 0.00 | 0.01 | 0.01 | 46 | 1004.3 |
| 20260503212345 | 67 | 212 | 0.9 | 7.8 | 0.00 | 0.01 | 0.01 | 44 | 1004.4 |
| 20260503211328 | 67 | 226 | 0.0 | 1.7 | 0.00 | 0.01 | 0.01 | 45 | 1004.6 |
| 20260503210823 | 67 | 200 | 0.0 | 2.6 | 0.00 | 0.01 | 0.01 | 46 | 1004.6 |
| 20260503210317 | 67 | 262 | 0.0 | 0.9 | 0.00 | 0.01 | 0.01 | 45 | 1004.7 |
| 20260503205811 | 66 | 213 | 0.0 | 2.6 | 0.00 | 0.01 | 0.01 | 45 | 1004.8 |
| 20260503205304 | 66 | 330 | 0.0 | 2.6 | 0.00 | 0.01 | 0.01 | 46 | 1005.0 |
| 20260503204758 | 66 | 218 | 0.0 | 2.6 | 0.00 | 0.01 | 0.01 | 44 | 1005.0 |
| 20260503204252 | 66 | 225 | 0.0 | 7.8 | 0.00 | 0.01 | 0.01 | 45 | 1005.1 |
| 20260503203747 | 66 | 151 | 0.0 | 7.8 | 0.00 | 0.01 | 0.01 | 44 | 1005.2 |
| 20260503202734 | 67 | 262 | 0.0 | 9.6 | 0.00 | 0.01 | 0.01 | 43 | 1005.3 |
| 20260503202228 | 66 | 212 | 0.0 | 4.3 | 0.00 | 0.01 | 0.01 | 44 | 1005.5 |
| 20260503201722 | 66 | 225 | 0.0 | 4.3 | 0.00 | 0.01 | 0.01 | 43 | 1005.6 |
| 20260503201216 | 66 | 187 | 0.0 | 1.7 | 0.00 | 0.01 | 0.01 | 44 | 1005.7 |
| 20260503200710 | 66 | 175 | 0.0 | 1.7 | 0.00 | 0.01 | 0.01 | 43 | 1005.8 |
| 20260503200205 | 65 | 148 | 0.0 | 2.6 | 0.00 | 0.01 | 0.01 | 44 | 1005.9 |
| 20260503195658 | 65 | 179 | 0.0 | 1.7 | 0.00 | 0.01 | 0.01 | 47 | 1006.0 |
| 20260503194646 | 65 | 188 | 0.0 | 5.2 | 0.00 | 0.01 | 0.01 | 50 | 1006.2 |
| 20260503193634 | 64 | 182 | 0.0 | 4.3 | 0.00 | 0.01 | 0.01 | 49 | 1006.5 |
| 20260503192623 | 63 | 180 | 0.0 | 2.6 | 0.00 | 0.01 | 0.01 | 52 | 1006.6 |
| 20260503192116 | 63 | 207 | 0.0 | 6.1 | 0.00 | 0.01 | 0.01 | 51 | 1006.7 |
| 20260503191610 | 63 | 207 | 0.0 | 6.1 | 0.00 | 0.01 | 0.01 | 52 | 1006.8 |
| 20260503190053 | 62 | 218 | 0.0 | 5.2 | 0.00 | 0.01 | 0.01 | 52 | 1006.9 |
| 20260503185548 | 62 | 183 | 0.0 | 4.3 | 0.00 | 0.01 | 0.01 | 50 | 1006.9 |
| 20260503185040 | 62 | 188 | 0.0 | 9.6 | 0.00 | 0.01 | 0.01 | 50 | 1006.8 |
| 20260503184534 | 62 | 181 | 0.0 | 9.6 | 0.00 | 0.01 | 0.01 | 50 | 1006.8 |
| 20260503184029 | 62 | 177 | 0.0 | 10.4 | 0.00 | 0.01 | 0.01 | 49 | 1006.8 |
| 20260503183522 | 62 | 176 | 0.9 | 10.4 | 0.00 | 0.01 | 0.01 | 48 | 1006.9 |
| 20260503183016 | 61 | 163 | 0.0 | 10.4 | 0.00 | 0.01 | 0.01 | 48 | 1006.8 |
| 20260503182511 | 61 | 164 | 0.9 | 10.4 | 0.00 | 0.01 | 0.01 | 50 | 1006.9 |
| 20260503182010 | 61 | 189 | 0.9 | 12.2 | 0.00 | 0.01 | 0.01 | 49 | 1006.9 |
| 20260503181459 | 61 | 170 | 0.9 | 12.2 | 0.00 | 0.01 | 0.01 | 49 | 1007.0 |
| 20260503180954 | 61 | 178 | 0.0 | 11.3 | 0.00 | 0.01 | 0.01 | 52 | 1007.2 |
| 20260503180453 | 61 | 217 | 0.0 | 11.3 | 0.00 | 0.01 | 0.01 | 51 | 1007.3 |
| 20260503175955 | 61 | 231 | 0.0 | 7.0 | 0.00 | 0.01 | 0.01 | 51 | 1007.4 |
| 20260503175453 | 61 | 144 | 0.0 | 7.0 | 0.00 | 0.01 | 0.01 | 51 | 1007.6 |
| 20260503174954 | 60 | 222 | 0.0 | 9.6 | 0.00 | 0.01 | 0.01 | 52 | 1007.7 |
| 20260503174453 | 60 | 175 | 0.0 | 9.6 | 0.00 | 0.01 | 0.01 | 53 | 1007.8 |
| 20260503173452 | 60 | 205 | 0.9 | 12.2 | 0.00 | 0.01 | 0.01 | 54 | 1008.2 |
| 20260503172951 | 59 | 176 | 1.7 | 12.2 | 0.00 | 0.01 | 0.01 | 56 | 1008.3 |
| 20260503172447 | 59 | 191 | 2.6 | 12.2 | 0.00 | 0.01 | 0.01 | 56 | 1008.4 |
| 20260503171945 | 58 | 188 | 3.5 | 12.2 | 0.00 | 0.01 | 0.01 | 59 | 1008.7 |
| 20260503170947 | 57 | 279 | 4.3 | 12.2 | 0.00 | 0.01 | 0.01 | 61 | 1008.9 |
| 20260503150914 | 55 | 186 | 0.0 | 2.6 | 0.00 | 0.00 | 0.00 | 61 | 1011.4 |
| 20260503150413 | 55 | 201 | 0.0 | 2.6 | 0.00 | 0.00 | 0.00 | 59 | 1011.3 |